Time;durP1;ratioP1;P1;durP2;ratioP2;P2;SDS_P1;SDS_P2;PMS_P1;PMS_P2;Temp;Humidity;BMP_temperature;BMP_pressure;BME280_temperature;BME280_humidity;BME280_pressure;Samples;Min_cycle;Max_cycle;Signal;HPM_P1;HPM_P2
2021/11/18 00:00:50;;;;;;;9.02;8.18;;;;;;;10.25;54.39;96379.03;4995123;28;20603;-66
2021/11/18 00:03:16;;;;;;;9.60;8.70;;;;;;;9.60;55.09;96356.81;4991736;28;20030;-65
2021/11/18 00:05:42;;;;;;;9.52;8.57;;;;;;;9.61;55.93;96384.97;4991874;28;20497;-65
2021/11/18 00:08:08;;;;;;;9.18;8.30;;;;;;;9.58;56.38;96366.94;4991991;28;20495;-65
2021/11/18 00:10:45;;;;;;;9.07;8.27;;;;;;;9.97;55.46;96355.69;4991419;28;20030;-65
2021/11/18 00:13:14;;;;;;;10.93;9.15;;;;;;;10.59;53.87;96362.41;4995344;28;20026;-65
2021/11/18 00:15:42;;;;;;;9.43;8.38;;;;;;;10.09;54.45;96364.19;4995798;28;20199;-66
2021/11/18 00:18:11;;;;;;;9.27;8.45;;;;;;;10.18;54.68;96377.69;4991470;28;20022;-64
2021/11/18 00:20:40;;;;;;;9.27;8.48;;;;;;;10.36;53.56;96367.28;4991165;28;20030;-65
2021/11/18 00:23:06;;;;;;;10.18;9.18;;;;;;;10.58;53.48;96366.13;4989966;28;20117;-66
2021/11/18 00:25:32;;;;;;;9.73;8.73;;;;;;;11.14;53.14;96379.91;4991589;28;20109;-65
2021/11/18 00:27:58;;;;;;;9.70;8.68;;;;;;;11.07;51.93;96376.78;4995372;28;20555;-65
2021/11/18 00:30:24;;;;;;;8.73;7.95;;;;;;;11.00;52.08;96356.84;4990783;28;20037;-65
2021/11/18 00:32:50;;;;;;;9.60;8.70;;;;;;;11.47;51.53;96366.13;4989889;28;20404;-65
2021/11/18 00:35:19;;;;;;;9.80;8.90;;;;;;;11.60;51.17;96376.13;4990256;28;20034;-66
2021/11/18 00:37:46;;;;;;;10.30;9.30;;;;;;;11.51;50.68;96340.47;4991247;28;20030;-66
2021/11/18 00:40:14;;;;;;;10.52;9.30;;;;;;;11.69;50.39;96371.78;4989683;28;20034;-65
2021/11/18 00:42:40;;;;;;;9.90;9.00;;;;;;;10.16;53.06;96303.53;4991623;28;20023;-66
2021/11/18 00:45:07;;;;;;;10.40;9.30;;;;;;;10.52;53.37;96369.91;5015579;22;20053;-74
2021/11/18 00:47:32;;;;;;;10.50;9.60;;;;;;;10.64;52.96;96368.50;5003450;28;20073;-74
2021/11/18 00:49:58;;;;;;;10.45;9.45;;;;;;;10.13;54.28;96368.69;5010572;28;20057;-73
2021/11/18 00:52:23;;;;;;;10.55;9.48;;;;;;;9.86;54.59;96376.97;5009978;28;20438;-74
2021/11/18 00:54:50;;;;;;;10.65;9.60;;;;;;;9.88;55.04;96382.84;5010697;28;20022;-73
2021/11/18 00:57:16;;;;;;;10.57;9.48;;;;;;;9.13;57.28;96394.25;5001554;28;20026;-74
2021/11/18 00:59:45;;;;;;;10.23;9.32;;;;;;;8.65;58.95;96369.72;4995475;28;20587;-74
2021/11/18 01:02:11;;;;;;;10.77;9.88;;;;;;;9.30;57.32;96384.97;4989782;28;20691;-74
2021/11/18 01:04:36;;;;;;;10.82;9.55;;;;;;;8.88;58.16;96384.41;4990959;28;20034;-75
2021/11/18 01:07:02;;;;;;;10.55;9.65;;;;;;;8.64;59.23;96387.50;4991177;28;20065;-74
2021/11/18 01:09:27;;;;;;;10.27;9.38;;;;;;;9.79;56.68;96388.94;4990933;28;20113;-74
2021/11/18 01:11:53;;;;;;;10.93;10.00;;;;;;;9.07;58.05;96380.97;4990780;28;20504;-74
2021/11/18 01:14:20;;;;;;;11.18;10.07;;;;;;;9.43;57.63;96373.03;4995210;28;20046;-74
2021/11/18 01:16:47;;;;;;;11.50;10.40;;;;;;;9.75;56.50;96386.03;4989870;28;20022;-74
2021/11/18 01:19:14;;;;;;;11.18;10.07;;;;;;;10.54;54.73;96370.41;4989216;28;20026;-74
2021/11/18 01:21:41;;;;;;;10.38;9.32;;;;;;;10.84;53.65;96369.47;4989616;28;20023;-73
2021/11/18 01:24:08;;;;;;;11.02;10.02;;;;;;;10.83;53.30;96375.84;4990894;28;20117;-74
2021/11/18 01:26:34;;;;;;;10.80;9.77;;;;;;;10.85;52.71;96366.53;4989751;28;20491;-73
2021/11/18 01:29:00;;;;;;;10.35;9.45;;;;;;;10.94;53.31;96364.06;4993727;28;20030;-74
2021/11/18 01:31:26;;;;;;;9.48;8.68;;;;;;;11.27;52.04;96381.19;4990679;28;20472;-74
2021/11/18 01:33:52;;;;;;;10.93;9.80;;;;;;;10.61;52.86;96376.25;4989200;28;20022;-74
2021/11/18 01:36:17;;;;;;;10.48;9.57;;;;;;;10.14;54.71;96382.78;4990947;28;20069;-76
2021/11/18 01:38:43;;;;;;;10.05;9.18;;;;;;;10.00;55.77;96376.44;4990735;28;20494;-74
2021/11/18 01:41:17;;;;;;;10.80;9.80;;;;;;;10.13;55.36;96381.16;4990446;28;20019;-73
2021/11/18 01:43:46;;;;;;;11.02;10.02;;;;;;;9.94;55.54;96383.63;4994138;28;20049;-73
2021/11/18 01:46:17;;;;;;;11.32;10.27;;;;;;;9.50;57.46;96381.53;4989249;28;20297;-73
2021/11/18 01:48:46;;;;;;;11.43;10.32;;;;;;;9.41;56.73;96375.16;4990723;28;20029;-75
2021/11/18 01:51:11;;;;;;;10.85;9.80;;;;;;;9.81;56.26;96379.63;4990164;28;20029;-74
2021/11/18 01:53:41;;;;;;;10.68;9.68;;;;;;;9.08;57.73;96397.69;4990406;28;20034;-74
2021/11/18 01:56:21;;;;;;;11.10;10.10;;;;;;;9.64;57.14;96400.38;4990559;28;20030;-74
2021/11/18 01:58:52;;;;;;;11.75;10.68;;;;;;;9.27;57.03;96360.81;4989724;28;20072;-74
2021/11/18 02:01:19;;;;;;;12.02;10.93;;;;;;;9.09;58.60;96389.47;4990159;28;20033;-74
2021/11/18 02:03:45;;;;;;;12.02;10.93;;;;;;;9.33;58.00;96378.34;4989965;28;20027;-74
2021/11/18 02:06:25;;;;;;;12.73;11.43;;;;;;;9.72;56.36;96370.59;4989159;28;20031;-73
2021/11/18 02:08:51;;;;;;;11.93;10.50;;;;;;;9.75;56.93;96386.03;4990354;28;20109;-73
2021/11/18 02:11:40;;;;;;;11.50;10.40;;;;;;;9.73;56.12;96390.03;4990084;28;20037;-73
2021/11/18 02:14:09;;;;;;;11.77;10.73;;;;;;;9.84;55.87;96387.09;4999678;28;20029;-73
2021/11/18 02:16:35;;;;;;;11.52;10.43;;;;;;;10.71;55.00;96386.84;4990207;28;20072;-73
2021/11/18 02:19:02;;;;;;;11.43;10.32;;;;;;;11.11;53.65;96367.19;4988940;28;20475;-74
2021/11/18 02:21:27;;;;;;;12.25;11.20;;;;;;;11.49;52.22;96375.41;4989119;28;20026;-74
2021/11/18 02:23:57;;;;;;;12.23;10.88;;;;;;;11.70;51.94;96368.81;4988657;28;20072;-75
2021/11/18 02:26:25;;;;;;;12.70;11.43;;;;;;;11.80;50.93;96375.94;4990404;28;20038;-74
2021/11/18 02:29:01;;;;;;;11.45;10.38;;;;;;;11.47;50.57;96360.78;4992579;28;20022;-74
2021/11/18 02:31:58;;;;;;;12.10;10.88;;;;;;;11.77;51.22;96360.50;4989214;28;20023;-74
2021/11/18 02:34:35;;;;;;;11.43;10.43;;;;;;;12.04;51.05;96361.88;4988682;28;20571;-74
2021/11/18 02:37:00;;;;;;;11.43;10.13;;;;;;;12.16;50.40;96348.94;4990394;28;20069;-74
2021/11/18 02:39:26;;;;;;;11.90;10.32;;;;;;;12.30;49.97;96354.38;4993714;28;20050;-74
2021/11/18 02:41:51;;;;;;;11.20;10.20;;;;;;;12.12;49.49;96379.91;4992286;28;20030;-75
2021/11/18 02:44:17;;;;;;;11.43;10.32;;;;;;;12.09;50.14;96377.84;4998124;28;20691;-74
2021/11/18 02:46:42;;;;;;;10.48;9.57;;;;;;;12.29;50.09;96374.94;5006612;28;20484;-74
2021/11/18 02:49:08;;;;;;;10.65;9.75;;;;;;;12.37;49.99;96368.16;4993683;28;20102;-74
2021/11/18 02:51:34;;;;;;;9.98;9.07;;;;;;;12.47;49.61;96379.50;4993687;28;20026;-74
2021/11/18 02:54:00;;;;;;;10.63;9.73;;;;;;;12.51;48.93;96373.63;4993440;28;20026;-72
2021/11/18 02:56:28;;;;;;;11.40;10.30;;;;;;;12.56;48.88;96370.88;4993737;28;20033;-75
2021/11/18 02:58:54;;;;;;;14.85;10.23;;;;;;;12.55;48.58;96363.97;4996029;28;20030;-74
2021/11/18 03:01:28;;;;;;;11.05;10.07;;;;;;;12.66;48.71;96370.75;4994410;28;20021;-75
2021/11/18 03:03:54;;;;;;;10.48;9.48;;;;;;;12.48;48.85;96351.75;4993291;28;20026;-75
2021/11/18 03:06:20;;;;;;;12.20;11.07;;;;;;;12.65;48.31;96374.50;4993424;28;20376;-75
2021/11/18 03:08:47;;;;;;;11.30;10.30;;;;;;;12.68;48.51;96380.06;4993314;28;20476;-74
2021/11/18 03:11:16;;;;;;;12.13;11.02;;;;;;;12.68;48.57;96381.94;4992741;28;20034;-73
2021/11/18 03:13:42;;;;;;;10.85;9.95;;;;;;;12.68;48.17;96377.38;4993778;28;20022;-73
2021/11/18 03:16:08;;;;;;;12.55;11.45;;;;;;;12.65;48.51;96369.97;5011964;28;20053;-74
2021/11/18 03:18:34;;;;;;;12.43;11.27;;;;;;;12.71;48.54;96390.19;4992999;28;20439;-74
2021/11/18 03:21:01;;;;;;;11.75;10.65;;;;;;;12.76;48.29;96383.97;4992667;28;20030;-73
2021/11/18 03:23:28;;;;;;;11.88;10.68;;;;;;;12.69;48.49;96370.16;4992578;28;20435;-74
2021/11/18 03:25:54;;;;;;;12.30;11.10;;;;;;;12.78;48.13;96389.03;4992819;28;20030;-74
2021/11/18 03:28:22;;;;;;;11.95;10.93;;;;;;;12.80;47.86;96393.00;4998805;28;20081;-74
2021/11/18 03:30:50;;;;;;;11.65;10.65;;;;;;;12.84;48.15;96407.34;4997948;28;20461;-74
2021/11/18 03:33:23;;;;;;;11.45;10.45;;;;;;;12.83;48.02;96407.66;4992227;28;20039;-74
2021/11/18 03:35:49;;;;;;;11.35;10.35;;;;;;;12.88;47.87;96410.25;4992862;28;20022;-74
2021/11/18 03:38:15;;;;;;;11.23;10.18;;;;;;;12.78;47.78;96400.50;4992973;28;20675;-74
2021/11/18 03:40:44;;;;;;;11.80;10.75;;;;;;;12.78;47.63;96403.16;4992733;28;20030;-75
2021/11/18 03:43:10;;;;;;;12.48;11.32;;;;;;;12.76;47.72;96402.66;4996742;28;20526;-74
2021/11/18 03:45:37;;;;;;;11.13;9.98;;;;;;;12.78;47.90;96407.72;4997387;28;20056;-73
2021/11/18 03:48:04;;;;;;;12.68;11.35;;;;;;;12.71;47.83;96403.53;4993205;28;20432;-75
2021/11/18 03:50:29;;;;;;;12.32;11.13;;;;;;;12.77;47.98;96417.59;4991087;28;20026;-75
2021/11/18 03:52:55;;;;;;;12.38;11.30;;;;;;;12.85;48.10;96421.53;4991504;28;20085;-73
2021/11/18 03:55:20;;;;;;;13.35;12.15;;;;;;;11.61;49.93;96423.00;4992705;28;20049;-74
2021/11/18 03:57:46;;;;;;;13.05;11.75;;;;;;;11.72;50.13;96427.19;4993719;28;20392;-74
2021/11/18 04:00:20;;;;;;;11.55;10.60;;;;;;;10.80;52.85;96432.28;4993332;28;20029;-73
2021/11/18 04:02:47;;;;;;;12.65;11.52;;;;;;;10.51;52.97;96432.16;4991493;28;20471;-74
2021/11/18 04:05:13;;;;;;;12.18;11.07;;;;;;;9.97;55.19;96443.41;4992809;28;20488;-73
2021/11/18 04:07:39;;;;;;;11.93;10.93;;;;;;;11.14;52.44;96433.19;4991399;28;20407;-73
2021/11/18 04:10:08;;;;;;;11.68;10.68;;;;;;;11.56;51.40;96433.69;4991103;28;20018;-74
2021/11/18 04:12:33;;;;;;;13.10;11.80;;;;;;;11.87;51.17;96431.63;4992386;28;20030;-75
2021/11/18 04:14:59;;;;;;;13.60;11.65;;;;;;;12.10;50.43;96428.22;4996000;28;20067;-75
2021/11/18 04:17:24;;;;;;;12.90;11.02;;;;;;;12.31;49.73;96436.00;4992788;28;20033;-74
2021/11/18 04:19:49;;;;;;;12.38;11.27;;;;;;;12.37;49.66;96422.31;4991858;28;20026;-74
2021/11/18 04:22:15;;;;;;;11.82;10.82;;;;;;;12.47;49.11;96408.06;4992036;28;20031;-74
2021/11/18 04:24:43;;;;;;;12.00;11.00;;;;;;;12.63;49.02;96412.16;4991502;28;20030;-73
2021/11/18 04:27:09;;;;;;;12.75;11.52;;;;;;;12.47;48.35;96422.22;4991459;28;20029;-73
2021/11/18 04:29:35;;;;;;;12.43;11.32;;;;;;;12.18;49.09;96418.78;4995670;28;20026;-73
2021/11/18 04:32:09;;;;;;;12.65;11.52;;;;;;;11.18;50.85;96422.78;4990404;28;20018;-73
2021/11/18 04:34:35;;;;;;;13.20;12.00;;;;;;;11.36;51.84;96432.78;4990263;28;20053;-73
2021/11/18 04:37:01;;;;;;;13.57;12.43;;;;;;;11.10;51.80;96432.13;4991591;28;20034;-74
2021/11/18 04:39:27;;;;;;;13.85;11.95;;;;;;;10.72;52.84;96444.31;4991133;28;20031;-74
2021/11/18 04:41:52;;;;;;;13.32;11.98;;;;;;;11.26;52.32;96443.53;4991677;28;20026;-74
2021/11/18 04:44:20;;;;;;;13.00;11.80;;;;;;;11.60;51.57;96450.72;4990228;28;20038;-74
2021/11/18 04:46:45;;;;;;;13.77;12.25;;;;;;;11.90;51.31;96450.53;4995827;28;20080;-75
2021/11/18 04:49:11;;;;;;;13.35;12.00;;;;;;;12.14;50.85;96452.47;4990860;28;20030;-74
2021/11/18 04:51:36;;;;;;;13.70;12.40;;;;;;;12.10;50.34;96432.75;4990725;28;20035;-73
2021/11/18 04:54:03;;;;;;;13.10;12.00;;;;;;;12.37;50.06;96453.56;4990096;28;20031;-74
2021/11/18 04:56:29;;;;;;;12.85;11.73;;;;;;;12.26;49.68;96452.88;4991562;28;20030;-74
2021/11/18 04:58:58;;;;;;;13.20;12.00;;;;;;;12.26;49.51;96439.53;4994129;28;20030;-74
2021/11/18 05:01:24;;;;;;;14.30;11.90;;;;;;;12.38;49.34;96439.91;4989995;28;20031;-76
2021/11/18 05:03:51;;;;;;;13.85;12.65;;;;;;;12.39;49.18;96438.06;4990843;28;20037;-74
2021/11/18 05:06:17;;;;;;;13.02;11.82;;;;;;;12.34;49.04;96465.59;4991247;28;20030;-74
2021/11/18 05:08:42;;;;;;;12.60;11.50;;;;;;;11.41;50.00;96459.41;4990022;28;20037;-74
2021/11/18 05:11:08;;;;;;;12.73;11.63;;;;;;;11.33;50.50;96481.28;4989421;28;20361;-73
2021/11/18 05:13:34;;;;;;;13.00;11.52;;;;;;;11.76;50.48;96486.84;4990818;28;20026;-74
2021/11/18 05:16:04;;;;;;;12.85;11.73;;;;;;;11.97;49.99;96482.19;4994783;28;20096;-74
2021/11/18 05:18:30;;;;;;;11.82;10.82;;;;;;;12.09;49.75;96458.63;4982874;28;20030;-74
2021/11/18 05:20:56;;;;;;;12.75;11.65;;;;;;;12.23;49.78;96467.56;4990354;28;20036;-74
2021/11/18 05:23:23;;;;;;;13.77;12.57;;;;;;;12.14;49.37;96471.13;4990717;28;20030;-74
2021/11/18 05:25:49;;;;;;;12.05;11.05;;;;;;;11.90;49.88;96484.38;4990932;28;20030;-74
2021/11/18 05:28:14;;;;;;;12.80;11.77;;;;;;;11.99;50.05;96473.94;4990249;28;20033;-74
2021/11/18 05:30:40;;;;;;;14.10;12.70;;;;;;;12.23;49.42;96475.56;4994960;28;20018;-74
2021/11/18 05:33:09;;;;;;;13.25;12.00;;;;;;;12.02;49.49;96441.34;4990451;28;20022;-74
2021/11/18 05:35:37;;;;;;;12.55;11.35;;;;;;;12.23;48.97;96488.91;4989532;28;20037;-72
2021/11/18 05:38:04;;;;;;;12.45;11.25;;;;;;;12.33;49.26;96482.66;4990536;28;20211;-72
2021/11/18 05:40:31;;;;;;;12.27;11.15;;;;;;;12.32;49.10;96498.97;4988464;28;20061;-72
2021/11/18 05:42:57;;;;;;;12.60;11.45;;;;;;;12.02;49.31;96498.16;4989620;28;20499;-71
2021/11/18 05:45:27;;;;;;;11.23;10.32;;;;;;;11.90;49.88;96503.84;4993255;28;20732;-71
2021/11/18 05:47:53;;;;;;;12.52;11.50;;;;;;;10.92;52.19;96513.44;4989981;28;20019;-71
2021/11/18 05:50:20;;;;;;;11.98;10.85;;;;;;;11.05;52.26;96509.38;4988676;28;20026;-71
2021/11/18 05:52:45;;;;;;;12.07;10.98;;;;;;;11.12;51.83;96487.78;4990448;28;20029;-74
2021/11/18 05:55:14;;;;;;;11.35;10.25;;;;;;;11.76;51.17;96486.84;4991356;28;20026;-81
2021/11/18 05:57:42;;;;;;;11.95;10.85;;;;;;;11.64;50.92;96473.88;4990369;28;20117;-72
2021/11/18 06:00:10;;;;;;;11.55;10.55;;;;;;;12.13;49.80;96483.69;4994716;28;20110;-69
2021/11/18 06:02:36;;;;;;;11.20;10.20;;;;;;;12.28;49.88;96496.06;4990024;28;20026;-71
2021/11/18 06:05:04;;;;;;;11.77;10.73;;;;;;;11.57;49.62;96497.41;4988709;28;20494;-76
2021/11/18 06:07:30;;;;;;;12.98;11.70;;;;;;;11.45;50.66;96496.94;4991795;28;20472;-68
2021/11/18 06:09:56;;;;;;;12.20;11.10;;;;;;;11.02;52.22;96504.63;4988066;28;20045;-69
2021/11/18 06:12:21;;;;;;;11.93;10.82;;;;;;;11.57;50.77;96517.94;4990075;28;20468;-69
2021/11/18 06:14:47;;;;;;;12.63;11.52;;;;;;;11.47;51.04;96512.66;4997486;28;20023;-72
2021/11/18 06:17:12;;;;;;;12.73;11.25;;;;;;;11.65;50.62;96520.78;4997028;28;20026;-71
2021/11/18 06:19:37;;;;;;;11.80;10.82;;;;;;;11.69;50.48;96511.16;4992786;28;20109;-70
2021/11/18 06:22:03;;;;;;;11.77;10.57;;;;;;;11.67;50.52;96525.88;4992429;28;20026;-68
2021/11/18 06:24:29;;;;;;;12.52;11.27;;;;;;;11.77;50.58;96530.31;4993092;28;20161;-71
2021/11/18 06:26:56;;;;;;;12.95;11.65;;;;;;;11.31;51.67;96526.06;4993525;28;20022;-69
2021/11/18 06:29:22;;;;;;;12.07;10.93;;;;;;;11.80;50.72;96530.56;4997062;28;20026;-75
2021/11/18 06:31:50;;;;;;;12.20;11.00;;;;;;;12.13;49.68;96545.03;4989919;28;20480;-71
2021/11/18 06:34:17;;;;;;;12.70;11.27;;;;;;;11.08;51.25;96532.00;4989720;28;20058;-72
2021/11/18 06:36:43;;;;;;;13.52;11.27;;;;;;;11.70;50.44;96536.75;4993224;28;20039;-67
2021/11/18 06:39:09;;;;;;;13.07;10.98;;;;;;;11.67;50.79;96549.84;4993070;28;20030;-76
2021/11/18 06:41:35;;;;;;;12.23;11.02;;;;;;;11.62;50.82;96557.88;4991895;28;20371;-71
2021/11/18 06:44:00;;;;;;;16.10;11.80;;;;;;;11.74;51.09;96562.84;4996660;28;20037;-73
2021/11/18 06:46:27;;;;;;;13.10;11.05;;;;;;;12.28;50.09;96568.09;4998041;28;20022;-74
2021/11/18 06:48:53;;;;;;;13.00;11.55;;;;;;;12.35;48.98;96567.78;4991853;28;20544;-68
2021/11/18 06:51:22;;;;;;;12.45;11.35;;;;;;;12.52;48.96;96578.03;4991669;28;20487;-67
2021/11/18 06:53:48;;;;;;;11.93;10.73;;;;;;;12.67;48.88;96575.22;4992913;28;20439;-68
2021/11/18 06:56:19;;;;;;;13.55;12.25;;;;;;;12.85;48.27;96581.75;4993001;28;20031;-67
2021/11/18 06:58:44;;;;;;;12.07;10.85;;;;;;;12.91;48.07;96577.94;4994417;28;20037;-67
2021/11/18 07:01:10;;;;;;;11.80;10.60;;;;;;;12.68;47.69;96582.94;4994866;28;20015;-67
2021/11/18 07:03:39;;;;;;;12.15;11.02;;;;;;;12.39;48.69;96580.28;4992524;28;20018;-67
2021/11/18 07:06:07;;;;;;;12.00;10.90;;;;;;;12.12;49.03;96587.94;4992871;28;20027;-67
2021/11/18 07:08:34;;;;;;;10.82;9.82;;;;;;;12.49;48.85;96590.88;4992959;28;20030;-67
2021/11/18 07:11:00;;;;;;;11.80;10.75;;;;;;;12.73;48.53;96590.13;4992499;28;20030;-67
2021/11/18 07:13:28;;;;;;;11.45;10.00;;;;;;;12.62;48.06;96572.59;4992439;28;20468;-72
2021/11/18 07:15:55;;;;;;;10.75;9.82;;;;;;;12.75;47.96;96577.28;4997456;28;20061;-75
2021/11/18 07:18:23;;;;;;;11.80;10.65;;;;;;;13.02;47.40;96582.88;4991297;28;20029;-71
2021/11/18 07:20:49;;;;;;;10.40;9.45;;;;;;;12.89;47.00;96578.19;4992177;28;20113;-71
2021/11/18 07:23:15;;;;;;;10.30;9.32;;;;;;;11.73;49.32;96567.41;4992582;28;20023;-78
2021/11/18 07:25:41;;;;;;;15.48;10.45;;;;;;;12.14;49.37;96572.50;4990367;28;20062;-69
2021/11/18 07:28:07;;;;;;;10.80;9.18;;;;;;;12.63;48.50;96574.97;4990597;28;20022;-74
2021/11/18 07:30:33;;;;;;;14.20;9.82;;;;;;;13.14;47.81;96587.03;4996037;28;20026;-71
2021/11/18 07:32:59;;;;;;;12.55;10.15;;;;;;;13.00;47.09;96587.72;4992304;28;20084;-76
2021/11/18 07:35:25;;;;;;;10.23;9.32;;;;;;;12.53;47.48;96583.09;4993041;28;20034;-77
2021/11/18 07:37:51;;;;;;;11.68;9.05;;;;;;;12.32;48.44;96589.69;4993461;28;20054;-68
2021/11/18 07:40:19;;;;;;;10.38;9.48;;;;;;;12.69;47.23;96592.56;4992536;28;20117;-77
2021/11/18 07:42:46;;;;;;;9.95;9.05;;;;;;;12.53;47.89;96608.97;4991477;28;20034;-75
2021/11/18 07:45:14;;;;;;;13.10;9.82;;;;;;;12.80;47.67;96609.28;4997258;28;20479;-74
2021/11/18 07:47:39;;;;;;;11.35;10.23;;;;;;;12.45;47.94;96608.53;5007098;28;20054;-79
2021/11/18 07:50:06;;;;;;;9.65;8.75;;;;;;;12.63;48.20;96614.22;4991215;28;20054;-70
2021/11/18 07:52:32;;;;;;;11.20;10.10;;;;;;;13.10;47.69;96612.72;4992604;28;20361;-74
2021/11/18 07:54:58;;;;;;;9.85;8.85;;;;;;;11.60;49.43;96623.97;4992466;28;20031;-73
2021/11/18 07:57:23;;;;;;;9.93;9.00;;;;;;;12.38;48.45;96618.69;4990577;28;20030;-65
2021/11/18 07:59:49;;;;;;;9.07;8.18;;;;;;;12.86;47.84;96613.50;4991255;28;20057;-80
2021/11/18 08:02:14;;;;;;;11.43;9.30;;;;;;;12.99;46.91;96609.34;4992586;28;20065;-78
2021/11/18 08:04:40;;;;;;;9.55;8.73;;;;;;;13.32;46.58;96605.03;4991206;28;20057;-82
2021/11/18 08:07:07;;;;;;;12.13;9.02;;;;;;;13.36;45.75;96623.94;4993881;28;20069;-72
2021/11/18 08:09:33;;;;;;;10.70;9.70;;;;;;;12.93;46.89;96621.97;4992547;28;20026;-82
2021/11/18 08:12:00;;;;;;;9.55;8.65;;;;;;;12.96;47.04;96607.25;4993340;28;20030;-80
2021/11/18 08:14:27;;;;;;;10.02;9.10;;;;;;;13.06;47.04;96614.38;4991996;28;20460;-73
2021/11/18 08:16:54;;;;;;;9.30;8.40;;;;;;;13.39;46.49;96605.47;5010866;28;20156;-73
2021/11/18 08:19:25;;;;;;;9.45;8.55;;;;;;;13.20;45.78;96609.94;5001229;28;20483;-80
2021/11/18 08:21:53;;;;;;;8.98;8.18;;;;;;;13.14;45.98;96606.50;4990967;28;20520;-75
2021/11/18 08:24:20;;;;;;;8.80;8.00;;;;;;;13.33;46.03;96609.28;4990597;28;20037;-70
2021/11/18 08:26:46;;;;;;;9.43;7.45;;;;;;;13.71;45.68;96607.47;4991554;28;20388;-79
2021/11/18 08:29:14;;;;;;;9.60;8.80;;;;;;;14.01;44.76;96608.13;4991413;28;20014;-71
2021/11/18 08:31:41;;;;;;;8.98;8.18;;;;;;;13.78;44.97;96620.50;4994560;28;20030;-70
2021/11/18 08:34:07;;;;;;;9.80;8.90;;;;;;;13.19;45.98;96616.34;4991498;28;20018;-70
2021/11/18 08:36:37;;;;;;;9.15;8.43;;;;;;;12.63;46.88;96636.38;4991244;28;20045;-74
2021/11/18 08:39:07;;;;;;;9.43;8.63;;;;;;;12.71;46.42;96595.75;4990919;28;20018;-70
2021/11/18 08:41:33;;;;;;;7.95;7.35;;;;;;;12.47;47.73;96617.03;4991367;28;20050;-69
2021/11/18 08:43:59;;;;;;;9.50;8.25;;;;;;;13.00;46.93;96633.13;4989444;28;20121;-77
2021/11/18 08:46:25;;;;;;;9.18;8.38;;;;;;;13.00;46.28;96622.44;4994273;28;20030;-69
2021/11/18 08:48:53;;;;;;;9.00;8.20;;;;;;;12.97;46.72;96633.69;4989672;28;20026;-69
2021/11/18 08:51:21;;;;;;;9.10;8.30;;;;;;;13.50;46.27;96635.53;4990602;28;20034;-69
2021/11/18 08:53:50;;;;;;;9.02;8.10;;;;;;;13.87;45.41;96634.81;4990594;28;20077;-69
2021/11/18 08:56:16;;;;;;;8.52;7.82;;;;;;;13.92;45.17;96624.06;4989292;28;20492;-69
2021/11/18 08:58:44;;;;;;;8.48;7.78;;;;;;;13.79;44.79;96630.09;4990279;28;20053;-70
2021/11/18 09:01:16;;;;;;;9.02;8.20;;;;;;;13.79;44.86;96640.81;4990065;28;20089;-69
2021/11/18 09:03:42;;;;;;;8.48;7.78;;;;;;;13.96;44.65;96634.94;4989290;28;20516;-70
2021/11/18 09:06:11;;;;;;;9.32;8.27;;;;;;;13.88;44.71;96633.72;4990039;28;20584;-69
2021/11/18 09:08:37;;;;;;;8.52;7.82;;;;;;;13.58;45.03;96637.59;4990159;28;20048;-71
2021/11/18 09:11:07;;;;;;;9.07;8.20;;;;;;;13.54;45.21;96636.56;4989744;28;20026;-70
2021/11/18 09:13:33;;;;;;;8.63;7.88;;;;;;;14.00;44.32;96625.28;4989323;28;20030;-71
2021/11/18 09:15:58;;;;;;;10.60;8.48;;;;;;;14.39;44.06;96640.25;4989850;28;20491;-71
2021/11/18 09:18:24;;;;;;;8.40;7.70;;;;;;;14.08;44.23;96639.91;4989472;28;20034;-71
2021/11/18 09:20:52;;;;;;;8.68;7.95;;;;;;;13.64;44.84;96647.13;4990411;28;20109;-72
2021/11/18 09:23:21;;;;;;;8.15;7.40;;;;;;;13.60;45.34;96651.47;4989446;28;20105;-71
2021/11/18 09:25:50;;;;;;;8.57;7.78;;;;;;;13.58;44.70;96660.84;4989143;28;20022;-73
2021/11/18 09:28:18;;;;;;;8.25;7.53;;;;;;;13.27;46.12;96656.66;4990555;28;20041;-71
2021/11/18 09:30:59;;;;;;;9.02;8.05;;;;;;;14.33;44.33;96658.25;4994244;28;20033;-71
2021/11/18 09:33:28;;;;;;;8.07;7.38;;;;;;;14.88;43.72;96655.78;4989201;28;20049;-71
2021/11/18 09:35:59;;;;;;;7.70;7.00;;;;;;;15.03;42.59;96652.84;4990448;28;20066;-71
2021/11/18 09:38:27;;;;;;;7.97;7.28;;;;;;;15.04;42.77;96651.75;4990128;28;20026;-71
2021/11/18 09:41:20;;;;;;;7.93;7.20;;;;;;;15.38;42.91;96655.97;4988635;28;20089;-72
2021/11/18 09:44:15;;;;;;;7.95;7.30;;;;;;;15.55;41.67;96653.47;4988938;28;20038;-71
2021/11/18 09:47:17;;;;;;;7.82;7.13;;;;;;;15.67;41.35;96652.25;4992661;28;20133;-70
2021/11/18 09:49:42;;;;;;;;;;;;;;;15.83;41.24;96656.19;4983726;28;20072;-71
2021/11/18 09:52:31;;;;;;;8.18;7.47;;;;;;;15.97;41.45;96648.09;4989693;28;19957;-71
2021/11/18 09:55:14;;;;;;;7.93;7.18;;;;;;;16.20;40.58;96657.00;4989816;28;20085;-70
2021/11/18 09:58:10;;;;;;;7.25;6.65;;;;;;;15.91;40.07;96650.09;4988915;28;20033;-70
2021/11/18 10:01:00;;;;;;;9.45;7.55;;;;;;;16.17;40.80;96649.56;4987698;28;20629;-70
2021/11/18 10:03:47;;;;;;;8.18;7.53;;;;;;;14.65;42.93;96662.09;4989858;28;20038;-70
2021/11/18 10:06:32;;;;;;;7.40;6.80;;;;;;;14.13;43.83;96654.00;4990168;28;20711;-70
2021/11/18 10:09:01;;;;;;;8.10;7.40;;;;;;;14.38;44.04;96655.47;4988737;28;20490;-70
2021/11/18 10:11:59;;;;;;;8.13;7.47;;;;;;;15.32;42.87;96660.63;4989146;28;20026;-71
2021/11/18 10:14:25;;;;;;;7.45;6.75;;;;;;;15.54;42.05;96654.59;4984829;28;20604;-72
2021/11/18 10:17:13;;;;;;;8.88;7.85;;;;;;;15.51;40.90;96654.41;4990362;28;20121;-70
2021/11/18 10:19:49;;;;;;;8.07;7.47;;;;;;;13.41;45.40;96656.78;4982984;28;20673;-70
2021/11/18 10:22:19;;;;;;;7.68;7.00;;;;;;;12.34;48.35;96652.38;4988885;28;20034;-71
2021/11/18 10:24:47;;;;;;;9.35;8.10;;;;;;;11.98;49.63;96659.81;4989976;28;20036;-71
2021/11/18 10:27:21;;;;;;;7.30;6.70;;;;;;;13.19;47.25;96656.44;4989560;28;20057;-70
2021/11/18 10:29:58;;;;;;;8.27;7.45;;;;;;;13.55;46.70;96640.03;4991336;28;20029;-74
2021/11/18 10:32:29;;;;;;;10.32;8.23;;;;;;;14.67;45.17;96638.47;4994944;28;20570;-68
2021/11/18 10:34:56;;;;;;;8.43;7.60;;;;;;;15.19;43.61;96636.50;4989431;28;20019;-69
2021/11/18 10:37:25;;;;;;;8.48;7.68;;;;;;;15.36;42.83;96636.72;4988471;28;20038;-68
2021/11/18 10:40:14;;;;;;;7.30;6.70;;;;;;;15.66;42.14;96635.34;4989328;28;20486;-67
2021/11/18 10:42:42;;;;;;;8.20;7.50;;;;;;;13.63;45.30;96639.41;4988127;28;20026;-67
2021/11/18 10:45:29;;;;;;;9.13;8.27;;;;;;;12.75;47.83;96625.34;4992641;28;20029;-69
2021/11/18 10:47:59;;;;;;;8.27;7.57;;;;;;;12.34;48.63;96633.69;5001798;28;20038;-69
2021/11/18 10:50:53;;;;;;;9.90;7.78;;;;;;;12.47;49.07;96634.91;4988102;28;20030;-70
2021/11/18 10:53:26;;;;;;;7.65;6.95;;;;;;;12.76;48.15;96629.63;4989666;28;20519;-70
2021/11/18 10:56:03;;;;;;;7.20;6.18;;;;;;;13.37;46.74;96625.56;4988697;28;20058;-70
2021/11/18 10:58:33;;;;;;;6.97;6.35;;;;;;;12.82;47.93;96639.16;4990053;28;20111;-72
2021/11/18 11:01:07;;;;;;;7.18;5.85;;;;;;;13.66;46.19;96630.78;4991151;28;20623;-71
2021/11/18 11:03:33;;;;;;;6.60;6.00;;;;;;;11.41;50.97;96643.25;4973803;28;20038;-72
2021/11/18 11:06:07;;;;;;;6.63;6.10;;;;;;;12.50;48.92;96637.03;4972592;28;20125;-70
2021/11/18 11:08:34;;;;;;;6.93;6.32;;;;;;;13.84;46.56;96632.72;4973582;28;20501;-70
2021/11/18 11:11:21;;;;;;;4.97;4.57;;;;;;;11.87;49.48;96631.56;4973444;28;20054;-71
2021/11/18 11:14:06;;;;;;;4.97;4.57;;;;;;;12.27;49.00;96624.41;4972591;28;20547;-71
2021/11/18 11:16:51;;;;;;;4.50;4.15;;;;;;;12.47;47.98;96625.03;4993410;28;20034;-71
2021/11/18 11:19:38;;;;;;;4.05;3.75;;;;;;;12.65;47.77;96626.25;5002401;28;20022;-70
2021/11/18 11:22:10;;;;;;;3.90;3.55;;;;;;;12.08;48.59;96624.25;4993561;28;20134;-71
2021/11/18 11:24:45;;;;;;;3.10;2.90;;;;;;;12.77;46.44;96627.72;4993091;28;20037;-71
2021/11/18 11:27:31;;;;;;;1.88;1.77;;;;;;;13.77;44.71;96618.91;4993123;28;20088;-70
2021/11/18 11:30:36;;;;;;;2.33;2.20;;;;;;;14.52;43.67;96607.38;4995868;28;20049;-70
2021/11/18 11:33:23;;;;;;;2.90;2.70;;;;;;;14.88;42.89;96604.88;4977071;28;20039;-70